Etusivu
METAR-TAF:

METAR-TAF

Lentoasemat :

Granite Falls Municipal Airport (Lenzen-Roe Memorial Field)

Granite Falls, Minnesota, Yhdysvallat

Leveyspiiri: 44-45-11N, Pituuspiiri: 095-33-21W, korkeus merenpinnasta: 319 m

Tämänhetkinen sää

Tämä raportti tehtiin 22 minuuttia sitten, kello 10.35 UTC
Tuuli 18 kn luoteesta puuskistuen 26 kn:hen
Lämpötila 3°C
Kosteus 87%
Ilmanpaine 1010 hPa
Näkyvyys: 11.3 km
Pilvistä 800 ft:n korkeudessa

METAR: KGDB 211035Z AUTO 32018G26KT 7SM OVC008 03/01 A2982 RMK AO2 T00250014

Aika: 04:57 (10:57 UTC)


TAF: puuttuu

Säähavainnot ja -ennusteet yli 4000 lentoasemalta (METAR- ja TAF-raportit).

Käytössä olevat sääasemat on merkitty karttaan keltaisilla ja punaisilla pisteillä.

Aseta hiiri pisteen päälle nähdäksesi sääaseman nimen.

Klikkaa sitten nähdäksesi säähavainnot ja -ennusteet.

Kartan vaihtaminen: klikkaa mustalla rastilla varustettuja vihreitä pisteitä, niin voit zoomata sisään; viivalla varustettua vihreää pistettä, niin voit zoomata ulos tai vihreitä nuolia, niin pääset viereisille kartoille.


METAR-TAF: